createdAt,value
2019-02-22T00:01:34.597Z,69.27
2019-02-22T00:04:39.363Z,69.16
2019-02-22T00:07:43.790Z,69.25
2019-02-22T00:10:48.228Z,69.92
2019-02-22T00:13:52.652Z,70.18
2019-02-22T00:16:57.096Z,70.45
2019-02-22T00:20:01.611Z,70.65
2019-02-22T00:23:06.044Z,70.88
2019-02-22T00:26:11.219Z,70.79
2019-02-22T00:29:16.086Z,71.02
2019-02-22T00:32:20.827Z,71.27
2019-02-22T00:35:25.324Z,71.23
2019-02-22T00:38:29.754Z,71.25
2019-02-22T00:41:34.840Z,71.92
2019-02-22T00:44:39.531Z,71.71
2019-02-22T00:47:44.262Z,71.15
2019-02-22T00:50:48.699Z,71.04
2019-02-22T00:53:53.142Z,69.83
2019-02-22T00:56:57.584Z,69.91
2019-02-22T01:00:02.030Z,69.80
2019-02-22T01:03:06.799Z,69.65
2019-02-22T01:06:11.243Z,69.70
2019-02-22T01:09:15.948Z,69.82
2019-02-22T01:12:20.418Z,70.10
2019-02-22T01:15:25.254Z,69.94
2019-02-22T01:18:30.043Z,70.00
2019-02-22T01:21:34.490Z,69.84
2019-02-22T01:24:39.196Z,69.65
2019-02-22T01:27:43.928Z,69.61
2019-02-22T01:30:48.375Z,69.12
2019-02-22T01:33:54.246Z,69.46
2019-02-22T01:36:59.031Z,69.70
2019-02-22T01:40:03.755Z,69.78
2019-02-22T01:43:08.510Z,69.42
2019-02-22T01:46:12.960Z,69.04
2019-02-22T01:49:17.649Z,69.19
2019-02-22T01:52:22.382Z,69.42
2019-02-22T01:55:27.119Z,69.10
2019-02-22T01:58:31.567Z,69.70
2019-02-22T02:01:36.277Z,69.74
2019-02-22T02:04:41.008Z,70.05
2019-02-22T02:07:45.760Z,70.38
2019-02-22T02:10:54.227Z,70.01
2019-02-22T02:13:56.628Z,70.01
2019-02-22T02:17:01.077Z,70.13
2019-02-22T02:20:07.764Z,70.57
2019-02-22T02:23:12.460Z,70.90
2019-02-22T02:26:16.910Z,70.53
2019-02-22T02:29:21.478Z,70.81
2019-02-22T02:32:25.956Z,70.80
2019-02-22T02:35:30.671Z,70.58
2019-02-22T02:38:35.391Z,70.40
2019-02-22T02:41:39.844Z,70.17
2019-02-22T02:44:44.281Z,70.24
2019-02-22T02:47:49.122Z,70.71
2019-02-22T02:50:53.518Z,71.05
2019-02-22T02:53:58.250Z,71.02
2019-02-22T02:57:02.993Z,70.82
2019-02-22T03:00:09.479Z,70.60
2019-02-22T03:03:13.931Z,69.86
2019-02-22T03:06:20.331Z,70.41
2019-02-22T03:09:24.780Z,70.32
2019-02-22T03:12:29.231Z,70.25
2019-02-22T03:15:34.012Z,70.44
2019-02-22T03:18:38.469Z,70.64
2019-02-22T03:21:43.163Z,70.92
2019-02-22T03:24:47.610Z,70.97
2019-02-22T03:27:52.059Z,70.96
2019-02-22T03:30:56.858Z,71.27
2019-02-22T03:34:01.314Z,71.21
2019-02-22T03:37:05.997Z,71.61
2019-02-22T03:40:10.832Z,71.91
2019-02-22T03:43:15.286Z,71.89
2019-02-22T03:46:19.730Z,71.98
2019-02-22T03:49:24.508Z,71.73
2019-02-22T03:52:31.655Z,71.83
2019-02-22T03:55:36.428Z,71.93
2019-02-22T03:58:41.168Z,72.71
2019-02-22T04:01:45.891Z,73.25
2019-02-22T04:04:50.634Z,73.13
2019-02-22T04:07:55.360Z,73.94
2019-02-22T04:10:59.808Z,74.20
2019-02-22T04:14:04.253Z,73.82
2019-02-22T04:17:11.404Z,73.99
2019-02-22T04:20:15.200Z,74.25
2019-02-22T04:23:19.656Z,74.47
2019-02-22T04:26:24.094Z,74.58
2019-02-22T04:29:28.550Z,75.12
2019-02-22T04:32:32.992Z,75.45
2019-02-22T04:35:37.827Z,75.23
2019-02-22T04:38:42.670Z,75.79
2019-02-22T04:41:57.709Z,76.09
2019-02-22T04:44:53.288Z,76.05
2019-02-22T04:47:58.086Z,76.30
2019-02-22T04:51:02.530Z,76.44
2019-02-22T04:54:06.976Z,76.29
2019-02-22T04:57:11.415Z,76.73
2019-02-22T05:00:17.832Z,77.32
2019-02-22T05:03:22.658Z,77.78
2019-02-22T05:06:27.102Z,77.94
2019-02-22T05:09:31.551Z,78.36
2019-02-22T05:12:35.988Z,78.09
2019-02-22T05:15:40.440Z,77.93
2019-02-22T05:18:44.885Z,78.74
2019-02-22T05:21:49.322Z,79.11
2019-02-22T05:24:54.136Z,78.88
2019-02-22T05:27:58.574Z,79.26
2019-02-22T05:31:05.130Z,79.57
2019-02-22T05:34:09.633Z,79.61
2019-02-22T05:37:14.397Z,79.57
2019-02-22T05:40:18.837Z,79.48
2019-02-22T05:43:23.280Z,79.36
2019-02-22T05:46:28.214Z,79.19
2019-02-22T05:49:32.718Z,79.12
2019-02-22T05:52:37.429Z,79.69
2019-02-22T05:55:44.298Z,79.87
2019-02-22T05:58:48.633Z,80.58
2019-02-22T06:01:53.160Z,80.79
2019-02-22T06:04:57.991Z,80.97
2019-02-22T06:08:02.426Z,82.07
2019-02-22T06:11:07.158Z,82.47
2019-02-22T06:14:11.875Z,82.55
2019-02-22T06:17:16.734Z,82.39
2019-02-22T06:20:21.215Z,82.49
2019-02-22T06:23:25.659Z,82.72
2019-02-22T06:26:30.569Z,82.87
2019-02-22T06:29:35.111Z,82.81
2019-02-22T06:32:42.167Z,82.49
2019-02-22T06:35:46.004Z,82.62
2019-02-22T06:38:50.739Z,83.20
2019-02-22T06:41:55.476Z,83.00
2019-02-22T06:44:59.924Z,83.22
2019-02-22T06:48:05.346Z,83.17
2019-02-22T06:51:10.086Z,83.23
2019-02-22T06:54:14.804Z,82.98
2019-02-22T06:57:19.568Z,83.20
2019-02-22T07:00:24.265Z,82.84
2019-02-22T07:03:28.999Z,82.73
2019-02-22T07:06:33.734Z,82.63
2019-02-22T07:09:38.491Z,82.61
2019-02-22T07:12:44.565Z,82.52
2019-02-22T07:15:49.005Z,82.51
2019-02-22T07:18:53.445Z,82.45
2019-02-22T07:21:58.188Z,82.59
2019-02-22T07:25:02.604Z,82.83
2019-02-22T07:28:07.383Z,82.50
2019-02-22T07:31:11.810Z,82.42
2019-02-22T07:34:16.248Z,82.29
2019-02-22T07:37:20.696Z,82.37
2019-02-22T07:40:25.463Z,82.58
2019-02-22T07:43:29.939Z,82.37
2019-02-22T07:46:34.720Z,82.52
2019-02-22T07:49:39.455Z,83.01
2019-02-22T07:52:45.281Z,82.80
2019-02-22T07:55:49.936Z,82.61
2019-02-22T07:58:54.675Z,82.02
2019-02-22T08:01:59.401Z,81.45
2019-02-22T08:05:04.135Z,81.42
2019-02-22T08:08:08.599Z,81.64
2019-02-22T08:11:13.319Z,82.18
2019-02-22T08:14:18.067Z,81.95
2019-02-22T08:17:22.690Z,81.84
2019-02-22T08:20:27.097Z,81.66
2019-02-22T08:23:31.571Z,81.39
2019-02-22T08:26:36.002Z,81.13
2019-02-22T08:29:40.442Z,81.50
2019-02-22T08:32:44.896Z,81.16
2019-02-22T08:35:49.604Z,81.50
2019-02-22T08:38:54.314Z,81.05
2019-02-22T08:41:59.063Z,80.76
2019-02-22T08:45:04.100Z,81.34
2019-02-22T08:48:08.553Z,81.54
2019-02-22T08:51:13.000Z,79.75
2019-02-22T08:54:17.446Z,78.85
2019-02-22T08:57:32.778Z,77.98
2019-02-22T09:00:37.527Z,77.27
2019-02-22T09:03:50.618Z,77.00
2019-02-22T09:06:48.774Z,76.71
2019-02-22T09:09:53.721Z,77.66
2019-02-22T09:12:58.455Z,76.98
2019-02-22T09:16:02.895Z,77.36
2019-02-22T09:19:07.357Z,76.54
2019-02-22T09:22:22.503Z,76.82
2019-02-22T09:25:18.287Z,75.39
2019-02-22T09:28:22.751Z,74.56
2019-02-22T09:31:27.276Z,73.74
2019-02-22T09:34:31.727Z,73.93
2019-02-22T09:37:36.489Z,73.71
2019-02-22T09:40:40.940Z,74.42
2019-02-22T09:43:54.648Z,75.65
2019-02-22T09:46:52.222Z,73.56
2019-02-22T09:49:56.951Z,73.76
2019-02-22T09:53:01.681Z,74.09
2019-02-22T09:56:06.410Z,74.48
2019-02-22T09:59:11.139Z,73.75
2019-02-22T10:02:15.870Z,73.15
2019-02-22T10:05:20.603Z,73.32
2019-02-22T10:08:25.062Z,72.53
2019-02-22T10:11:29.514Z,70.63
2019-02-22T10:14:33.970Z,69.39
2019-02-22T10:17:38.703Z,68.17
2019-02-22T10:20:43.433Z,67.23
2019-02-22T10:23:47.888Z,67.23
2019-02-22T10:26:52.590Z,67.32
2019-02-22T10:29:57.042Z,66.95
2019-02-22T10:33:01.493Z,64.43
2019-02-22T10:36:06.018Z,64.07
2019-02-22T10:39:10.476Z,63.75
2019-02-22T10:42:14.919Z,62.41
2019-02-22T10:45:19.656Z,61.83
2019-02-22T10:48:24.110Z,62.06
2019-02-22T10:51:28.800Z,62.58
2019-02-22T10:54:33.252Z,62.70
2019-02-22T10:57:37.694Z,62.26
2019-02-22T11:00:42.478Z,60.67
2019-02-22T11:03:46.938Z,57.92
2019-02-22T11:06:51.372Z,58.13
2019-02-22T11:09:56.166Z,58.81
2019-02-22T11:13:00.615Z,59.64
2019-02-22T11:16:05.311Z,58.24
2019-02-22T11:19:09.757Z,57.74
2019-02-22T11:22:14.224Z,57.25
2019-02-22T11:25:18.669Z,55.66
2019-02-22T11:28:23.416Z,54.00
2019-02-22T11:31:27.863Z,50.99
2019-02-22T11:34:32.304Z,51.27
2019-02-22T11:37:36.992Z,50.76
2019-02-22T11:40:41.447Z,53.39
2019-02-22T11:43:46.151Z,53.95
2019-02-22T11:46:50.587Z,54.87
2019-02-22T11:49:55.037Z,55.38
2019-02-22T11:52:59.485Z,55.34
2019-02-22T11:56:04.252Z,56.18
2019-02-22T11:59:08.983Z,57.82
2019-02-22T12:02:13.719Z,58.91
2019-02-22T12:05:18.166Z,57.94
2019-02-22T12:08:22.620Z,56.89
2019-02-22T12:11:27.069Z,57.33
2019-02-22T12:14:31.509Z,57.53
2019-02-22T12:17:36.239Z,55.77
2019-02-22T12:20:40.729Z,54.24
2019-02-22T12:23:45.163Z,53.85
2019-02-22T12:26:49.918Z,53.15
2019-02-22T12:29:54.649Z,53.56
2019-02-22T12:32:59.381Z,54.18
2019-02-22T12:36:03.905Z,53.29
2019-02-22T12:39:09.353Z,53.00
2019-02-22T12:42:13.788Z,53.23
2019-02-22T12:45:18.235Z,53.74
2019-02-22T12:48:22.910Z,54.27
2019-02-22T12:51:27.423Z,54.30
2019-02-22T12:54:32.235Z,54.71
2019-02-22T12:57:36.823Z,54.45
2019-02-22T13:00:41.552Z,54.59
2019-02-22T13:03:46.280Z,54.35
2019-02-22T13:06:54.289Z,54.77
2019-02-22T13:09:59.132Z,54.27
2019-02-22T13:13:03.653Z,54.18
2019-02-22T13:16:08.085Z,54.85
2019-02-22T13:19:12.520Z,54.11
2019-02-22T13:22:17.223Z,53.21
2019-02-22T13:25:21.710Z,53.08
2019-02-22T13:28:26.135Z,53.09
2019-02-22T13:31:30.904Z,53.54
2019-02-22T13:34:35.631Z,53.53
2019-02-22T13:37:40.152Z,54.34
2019-02-22T13:40:44.594Z,54.03
2019-02-22T13:43:49.317Z,53.99
2019-02-22T13:46:53.754Z,52.96
2019-02-22T13:49:58.197Z,53.42
2019-02-22T13:53:02.894Z,53.52
2019-02-22T13:56:07.332Z,52.81
2019-02-22T13:59:11.770Z,52.32
2019-02-22T14:02:16.232Z,51.55
2019-02-22T14:05:20.997Z,52.70
2019-02-22T14:08:25.729Z,51.31
2019-02-22T14:11:30.173Z,51.99
2019-02-22T14:14:34.607Z,51.74
2019-02-22T14:17:39.055Z,51.46
2019-02-22T14:20:43.503Z,51.25
2019-02-22T14:23:48.255Z,50.31
2019-02-22T14:26:53.865Z,49.80
2019-02-22T14:29:58.537Z,48.06
2019-02-22T14:33:02.997Z,45.57
2019-02-22T14:36:07.442Z,45.15
2019-02-22T14:39:12.344Z,43.72
2019-02-22T14:42:17.752Z,43.88
2019-02-22T14:45:22.163Z,44.60
2019-02-22T14:48:26.833Z,45.65
2019-02-22T14:51:31.364Z,46.79
2019-02-22T14:54:36.070Z,47.63
2019-02-22T14:57:40.710Z,47.95
2019-02-22T15:00:45.121Z,47.51
2019-02-22T15:03:49.586Z,48.87
2019-02-22T15:06:54.017Z,48.01
2019-02-22T15:09:59.054Z,47.86
2019-02-22T15:13:03.644Z,47.84
2019-02-22T15:16:21.920Z,47.99
2019-02-22T15:19:26.364Z,48.20
2019-02-22T15:22:31.180Z,49.17
2019-02-22T15:25:35.589Z,49.31
2019-02-22T15:28:40.033Z,50.38
2019-02-22T15:31:44.484Z,51.53
2019-02-22T15:34:49.252Z,50.31
2019-02-22T15:37:53.978Z,49.84
2019-02-22T15:40:58.712Z,49.97
2019-02-22T15:44:05.628Z,50.98
2019-02-22T15:47:12.026Z,51.73
2019-02-22T15:50:17.205Z,51.59
2019-02-22T15:53:21.939Z,51.21
2019-02-22T15:56:26.443Z,51.46
2019-02-22T15:59:31.208Z,50.29
2019-02-22T16:02:36.042Z,49.66
2019-02-22T16:05:45.170Z,51.13
2019-02-22T16:08:49.622Z,50.38
2019-02-22T16:11:54.065Z,49.57
2019-02-22T16:14:58.841Z,50.78
2019-02-22T16:18:03.573Z,50.30
2019-02-22T16:21:08.008Z,50.48
2019-02-22T16:24:12.725Z,50.71
2019-02-22T16:27:17.458Z,51.28
2019-02-22T16:30:23.821Z,51.78
2019-02-22T16:33:28.554Z,52.06
2019-02-22T16:36:32.997Z,52.57
2019-02-22T16:39:37.443Z,53.40
2019-02-22T16:42:42.136Z,53.62
2019-02-22T16:45:46.573Z,54.33
2019-02-22T16:48:51.018Z,54.99
2019-02-22T16:51:55.455Z,55.25
2019-02-22T16:55:00.286Z,56.01
2019-02-22T16:58:05.009Z,56.61
2019-02-22T17:01:09.443Z,57.44
2019-02-22T17:04:13.898Z,57.54
2019-02-22T17:07:18.346Z,58.04
2019-02-22T17:10:23.077Z,58.50
2019-02-22T17:13:27.812Z,58.81
2019-02-22T17:16:32.255Z,59.55
2019-02-22T17:19:36.716Z,59.64
2019-02-22T17:22:41.218Z,60.39
2019-02-22T17:25:45.911Z,60.67
2019-02-22T17:28:50.354Z,61.27
2019-02-22T17:31:54.788Z,61.53
2019-02-22T17:34:59.226Z,61.78
2019-02-22T17:38:03.694Z,61.69
2019-02-22T17:41:08.532Z,62.03
2019-02-22T17:44:13.002Z,62.17
2019-02-22T17:47:17.445Z,62.34
2019-02-22T17:50:22.138Z,63.10
2019-02-22T17:53:26.566Z,63.45
2019-02-22T17:56:31.274Z,63.75
2019-02-22T17:59:36.106Z,63.80
2019-02-22T18:02:40.544Z,64.27
2019-02-22T18:05:44.968Z,64.38
2019-02-22T18:08:49.796Z,64.52
2019-02-22T18:11:54.509Z,64.45
2019-02-22T18:14:59.196Z,64.76
2019-02-22T18:18:03.880Z,64.37
2019-02-22T18:21:08.303Z,63.92
2019-02-22T18:24:12.746Z,63.21
2019-02-22T18:27:17.446Z,62.81
2019-02-22T18:30:25.971Z,62.45
2019-02-22T18:33:30.707Z,62.70
2019-02-22T18:36:35.448Z,62.73
2019-02-22T18:39:39.892Z,62.57
2019-02-22T18:42:44.585Z,62.64
2019-02-22T18:45:49.313Z,63.09
2019-02-22T18:48:53.751Z,63.46
2019-02-22T18:51:58.183Z,63.91
2019-02-22T18:55:02.892Z,63.98
2019-02-22T18:58:07.331Z,63.49
2019-02-22T19:01:11.761Z,63.51
2019-02-22T19:04:16.221Z,63.36
2019-02-22T19:07:20.995Z,63.46
2019-02-22T19:10:25.436Z,63.25
2019-02-22T19:13:29.874Z,63.42
2019-02-22T19:16:34.304Z,62.52
2019-02-22T19:19:38.737Z,63.86
2019-02-22T19:22:43.248Z,64.32
2019-02-22T19:25:48.079Z,64.43
2019-02-22T19:28:52.779Z,64.50
2019-02-22T19:31:57.202Z,65.62
2019-02-22T19:35:01.940Z,66.63
2019-02-22T19:38:06.472Z,67.17
2019-02-22T19:41:11.185Z,67.11
2019-02-22T19:44:15.625Z,66.77
2019-02-22T19:47:20.073Z,66.54
2019-02-22T19:50:24.505Z,66.27
2019-02-22T19:53:28.949Z,66.38
2019-02-22T19:56:33.716Z,66.30
2019-02-22T19:59:38.155Z,66.38
2019-02-22T20:02:42.592Z,66.39
2019-02-22T20:05:47.131Z,66.47
2019-02-22T20:08:51.553Z,67.71
2019-02-22T20:11:55.997Z,66.46
2019-02-22T20:15:00.770Z,66.44
2019-02-22T20:18:06.912Z,66.48
2019-02-22T20:21:11.763Z,66.82
2019-02-22T20:24:16.203Z,66.48
2019-02-22T20:27:20.637Z,66.62
2019-02-22T20:30:25.347Z,67.22
2019-02-22T20:33:29.793Z,67.11
2019-02-22T20:36:35.455Z,65.96
2019-02-22T20:39:39.887Z,67.01
2019-02-22T20:42:44.315Z,67.39
2019-02-22T20:45:49.301Z,68.00
2019-02-22T20:49:00.753Z,67.36
2019-02-22T20:52:00.301Z,67.45
2019-02-22T20:55:06.287Z,68.20
2019-02-22T20:58:10.791Z,67.84
2019-02-22T21:01:15.243Z,68.77
2019-02-22T21:04:19.688Z,68.73
2019-02-22T21:07:24.116Z,67.97
2019-02-22T21:10:28.903Z,68.56
2019-02-22T21:13:33.333Z,71.03
2019-02-22T21:16:37.784Z,71.18
2019-02-22T21:19:42.573Z,70.34
2019-02-22T21:22:47.302Z,69.41
2019-02-22T21:25:52.044Z,69.14
2019-02-22T21:28:56.763Z,68.61
2019-02-22T21:32:01.196Z,68.83
2019-02-22T21:35:07.448Z,69.50
2019-02-22T21:38:12.184Z,70.75
2019-02-22T21:41:16.935Z,71.52
2019-02-22T21:44:21.423Z,72.42
2019-02-22T21:47:26.071Z,73.46
2019-02-22T21:50:30.514Z,72.46
2019-02-22T21:53:35.224Z,71.44
2019-02-22T21:56:39.673Z,70.88
2019-02-22T21:59:44.482Z,70.52
2019-02-22T22:02:48.918Z,70.10
2019-02-22T22:05:53.648Z,71.08
2019-02-22T22:08:58.075Z,72.00
2019-02-22T22:12:02.792Z,71.83
2019-02-22T22:15:13.104Z,72.30
2019-02-22T22:18:17.884Z,72.35
2019-02-22T22:21:22.610Z,74.36
2019-02-22T22:24:27.342Z,72.06
2019-02-22T22:27:31.777Z,72.09
2019-02-22T22:30:36.496Z,72.44
2019-02-22T22:33:40.936Z,72.59
2019-02-22T22:36:45.387Z,73.35
2019-02-22T22:39:49.828Z,77.77
2019-02-22T22:42:54.272Z,76.98
2019-02-22T22:45:59.850Z,78.17
2019-02-22T22:49:04.275Z,77.90
2019-02-22T22:52:08.720Z,77.83
2019-02-22T22:55:13.164Z,77.93
2019-02-22T22:58:17.849Z,77.99
2019-02-22T23:01:22.465Z,77.63
2019-02-22T23:04:26.913Z,77.16
2019-02-22T23:07:31.345Z,77.15
2019-02-22T23:10:35.783Z,77.18
2019-02-22T23:13:40.481Z,77.23
2019-02-22T23:16:44.922Z,77.06
2019-02-22T23:19:49.632Z,77.54
2019-02-22T23:22:54.060Z,77.80
2019-02-22T23:25:58.788Z,77.55
2019-02-22T23:29:03.221Z,77.95
2019-02-22T23:32:07.661Z,77.35
2019-02-22T23:35:12.369Z,77.87
2019-02-22T23:38:17.091Z,77.49
2019-02-22T23:41:21.827Z,77.62
2019-02-22T23:44:26.268Z,77.57
2019-02-22T23:47:30.988Z,77.37
2019-02-22T23:50:35.430Z,76.50
2019-02-22T23:53:40.140Z,76.54
2019-02-22T23:56:44.863Z,75.72
2019-02-22T23:59:49.599Z,75.22
